Time;durP1;ratioP1;P1;durP2;ratioP2;P2;SDS_P1;SDS_P2;PMS_P1;PMS_P2;Temp;Humidity;BMP_temperature;BMP_pressure;BME280_temperature;BME280_humidity;BME280_pressure;Samples;Min_cycle;Max_cycle;Signal;HPM_P1;HPM_P2
2022/04/03 00:01:33;;;;;;;25.80;20.83;;;;;;;-0.53;100.00;96088.13;5027680;28;105945;-59
2022/04/03 00:04:00;;;;;;;22.93;19.80;;;;;;;-0.52;100.00;96087.13;5029602;28;102296;-59
2022/04/03 00:06:27;;;;;;;22.73;19.87;;;;;;;-0.48;100.00;96083.97;5027978;28;104241;-59
2022/04/03 00:08:56;;;;;;;23.50;20.77;;;;;;;-0.42;100.00;96088.41;5030828;28;104428;-59
2022/04/03 00:11:25;;;;;;;23.50;19.90;;;;;;;-0.34;100.00;96095.31;5028971;27;102388;-59
2022/04/03 00:13:54;;;;;;;23.87;20.27;;;;;;;-0.32;100.00;96084.47;5027442;28;105832;-59
2022/04/03 00:16:21;;;;;;;24.17;20.70;;;;;;;-0.28;100.00;96092.72;5029538;27;101689;-59
2022/04/03 00:18:48;;;;;;;23.67;20.67;;;;;;;-0.13;100.00;96090.03;5029004;28;102412;-59
2022/04/03 00:21:16;;;;;;;24.87;21.13;;;;;;;-0.08;100.00;96091.06;5027315;27;105651;-59
2022/04/03 00:23:43;;;;;;;25.60;21.67;;;;;;;-0.15;100.00;96100.66;5026959;28;102061;-59
2022/04/03 00:26:10;;;;;;;23.17;20.30;;;;;;;-0.17;100.00;96094.81;5027799;28;105388;-59
2022/04/03 00:28:38;;;;;;;24.07;20.30;;;;;;;-0.04;100.00;96093.06;5027240;28;103966;-59
2022/04/03 00:31:08;;;;;;;25.37;20.83;;;;;;;-0.01;100.00;96094.50;5031219;28;101970;-59
2022/04/03 00:33:34;;;;;;;25.37;22.47;;;;;;;-0.02;100.00;96092.91;5027189;28;105319;-59
2022/04/03 00:36:02;;;;;;;23.70;21.20;;;;;;;-0.08;100.00;96098.91;5027732;28;102295;-59
2022/04/03 00:38:28;;;;;;;25.60;21.50;;;;;;;-0.12;100.00;96101.09;5027693;28;103995;-59
2022/04/03 00:40:56;;;;;;;23.70;20.67;;;;;;;-0.08;100.00;96104.13;5027032;28;103940;-59
2022/04/03 00:43:23;;;;;;;24.17;21.13;;;;;;;-0.11;100.00;96099.25;5029174;28;101677;-59
2022/04/03 00:45:52;;;;;;;24.43;21.10;;;;;;;-0.17;100.00;96094.00;5027362;28;104688;-59
2022/04/03 00:48:20;;;;;;;25.10;21.77;;;;;;;-0.17;100.00;96095.63;5026768;28;106233;-59
2022/04/03 00:50:48;;;;;;;24.30;20.47;;;;;;;-0.24;100.00;96104.41;5027406;28;101949;-59
2022/04/03 00:53:15;;;;;;;23.43;20.53;;;;;;;-0.25;100.00;96105.41;5030736;28;105259;-59
2022/04/03 00:55:42;;;;;;;24.83;21.27;;;;;;;-0.26;100.00;96104.59;5027480;28;101890;-59
2022/04/03 00:58:10;;;;;;;22.97;20.43;;;;;;;-0.21;100.00;96106.66;5027173;28;105057;-59
2022/04/03 01:00:39;;;;;;;22.80;20.03;;;;;;;-0.13;100.00;96111.72;5026843;28;103910;-59
2022/04/03 01:03:06;;;;;;;23.77;20.03;;;;;;;-0.14;100.00;96102.28;5027680;28;101786;-59
2022/04/03 01:05:35;;;;;;;25.13;21.47;;;;;;;-0.11;100.00;96112.31;5027333;28;104114;-59
2022/04/03 01:08:03;;;;;;;25.43;21.83;;;;;;;-0.13;100.00;96109.09;5026744;28;105260;-59
2022/04/03 01:10:30;;;;;;;23.73;20.67;;;;;;;-0.12;100.00;96105.50;5027165;28;101936;-59
2022/04/03 01:12:57;;;;;;;26.37;21.07;;;;;;;-0.13;100.00;96106.50;5027234;28;105521;-59
2022/04/03 01:15:24;;;;;;;25.97;21.47;;;;;;;-0.17;100.00;96108.69;5029884;28;101900;-59
2022/04/03 01:17:51;;;;;;;23.97;21.37;;;;;;;-0.15;100.00;96105.88;5026959;28;104087;-59
2022/04/03 01:20:18;;;;;;;25.97;21.60;;;;;;;-0.19;100.00;96109.88;5028106;28;103167;-59
2022/04/03 01:22:47;;;;;;;24.83;21.33;;;;;;;-0.26;100.00;96106.41;5027191;28;101851;-59
2022/04/03 01:25:15;;;;;;;23.57;20.77;;;;;;;-0.28;100.00;96117.06;5028405;28;102977;-59
2022/04/03 01:27:42;;;;;;;26.40;21.80;;;;;;;-0.30;100.00;96118.22;5027621;28;102520;-59
2022/04/03 01:30:11;;;;;;;24.67;20.90;;;;;;;-0.33;100.00;96109.97;5028346;28;101800;-59
2022/04/03 01:32:40;;;;;;;26.10;22.13;;;;;;;-0.33;100.00;96118.59;5026958;28;105411;-59
2022/04/03 01:35:08;;;;;;;24.37;21.50;;;;;;;-0.39;100.00;96119.38;5032872;28;105842;-59
2022/04/03 01:37:35;;;;;;;26.93;22.10;;;;;;;-0.36;100.00;96114.56;5030180;28;105619;-59
2022/04/03 01:40:04;;;;;;;25.47;21.67;;;;;;;-0.39;100.00;96123.81;5029857;28;105581;-59
2022/04/03 01:42:32;;;;;;;26.87;22.23;;;;;;;-0.32;100.00;96120.25;5030307;28;101794;-59
2022/04/03 01:44:59;;;;;;;27.77;22.60;;;;;;;-0.32;100.00;96122.03;5030356;28;105270;-59
2022/04/03 01:47:27;;;;;;;26.07;21.83;;;;;;;-0.43;100.00;96124.16;5029567;28;105472;-59
2022/04/03 01:49:55;;;;;;;29.07;24.27;;;;;;;-0.33;100.00;96123.03;5030173;28;102032;-59
2022/04/03 01:52:24;;;;;;;29.57;23.17;;;;;;;-0.23;100.00;96123.53;5030162;28;105194;-59
2022/04/03 01:54:51;;;;;;;28.57;22.87;;;;;;;-0.28;100.00;96124.06;5029623;28;105697;-59
2022/04/03 01:57:18;;;;;;;29.33;23.33;;;;;;;-0.27;100.00;96120.47;5033531;28;101869;-59
2022/04/03 01:59:46;;;;;;;29.57;24.07;;;;;;;-0.24;100.00;96124.53;5029681;28;103689;-59
2022/04/03 02:02:13;;;;;;;27.60;23.07;;;;;;;-0.22;100.00;96126.75;5030140;28;101901;-59
2022/04/03 02:04:40;;;;;;;31.07;23.87;;;;;;;-0.28;100.00;96121.47;5029952;28;104843;-59
2022/04/03 02:07:07;;;;;;;27.13;22.87;;;;;;;-0.24;100.00;96122.69;5029398;28;103903;-59
2022/04/03 02:09:34;;;;;;;30.10;23.77;;;;;;;-0.29;100.00;96130.28;5029827;28;101896;-59
2022/04/03 02:12:01;;;;;;;27.13;22.23;;;;;;;-0.22;100.00;96125.13;5031274;27;102398;-59
2022/04/03 02:14:28;;;;;;;26.10;22.40;;;;;;;-0.24;100.00;96125.31;5029311;28;105793;-59
2022/04/03 02:17:00;;;;;;;26.43;21.90;;;;;;;-0.22;100.00;96123.31;5029753;28;101867;-59
2022/04/03 02:19:27;;;;;;;28.50;22.83;;;;;;;-0.32;100.00;96128.88;5032870;28;105033;-59
2022/04/03 02:21:54;;;;;;;26.40;22.47;;;;;;;-0.21;100.00;96133.56;5029520;28;101952;-59
2022/04/03 02:24:22;;;;;;;26.73;22.70;;;;;;;-0.20;100.00;96135.19;5029746;28;104823;-59
2022/04/03 02:26:48;;;;;;;26.23;21.97;;;;;;;-0.41;100.00;96147.47;5029165;28;104166;-59
2022/04/03 02:29:15;;;;;;;25.77;22.03;;;;;;;-0.41;100.00;96139.66;5029732;28;102079;-60
2022/04/03 02:31:43;;;;;;;26.53;22.90;;;;;;;-0.40;100.00;96141.25;5029719;28;105456;-59
2022/04/03 02:34:12;;;;;;;26.07;22.40;;;;;;;-0.25;100.00;96147.22;5028675;28;105501;-59
2022/04/03 02:36:40;;;;;;;27.53;22.40;;;;;;;-0.19;100.00;96146.44;5029553;28;101934;-59
2022/04/03 02:39:07;;;;;;;28.30;23.03;;;;;;;-0.13;100.00;96150.91;5029371;28;105636;-59
2022/04/03 02:41:35;;;;;;;30.30;23.67;;;;;;;-0.17;100.00;96144.44;5034024;27;103123;-59
2022/04/03 02:44:03;;;;;;;29.97;23.80;;;;;;;-0.15;100.00;96145.09;5031122;28;102850;-59
2022/04/03 02:46:30;;;;;;;27.57;23.00;;;;;;;-0.32;100.00;96156.00;5027325;28;105338;-59
2022/04/03 02:48:57;;;;;;;26.57;22.33;;;;;;;-0.37;100.00;96149.53;5030161;28;101915;-59
2022/04/03 02:51:26;;;;;;;27.63;23.47;;;;;;;-0.32;100.00;96153.38;5029173;28;104987;-59
2022/04/03 02:53:53;;;;;;;27.07;21.83;;;;;;;-0.39;100.00;96153.31;5028491;28;105586;-59
2022/04/03 02:56:19;;;;;;;26.03;21.60;;;;;;;-0.39;100.00;96157.75;5029205;28;101988;-59
2022/04/03 02:58:46;;;;;;;24.13;20.63;;;;;;;-0.40;100.00;96153.53;5029468;28;105078;-59
2022/04/03 03:01:13;;;;;;;28.13;22.03;;;;;;;-0.32;100.00;96158.59;5028744;28;105240;-59
2022/04/03 03:03:41;;;;;;;25.33;22.13;;;;;;;-0.31;100.00;96164.44;5032704;28;101858;-59
2022/04/03 03:06:08;;;;;;;27.47;22.73;;;;;;;-0.28;100.00;96165.88;5028568;28;105081;-59
2022/04/03 03:08:37;;;;;;;26.77;22.07;;;;;;;-0.28;100.00;96168.47;5028700;28;101844;-59
2022/04/03 03:11:04;;;;;;;27.73;22.53;;;;;;;-0.32;100.00;96162.03;5030068;27;102865;-59
2022/04/03 03:13:31;;;;;;;29.57;22.73;;;;;;;-0.23;100.00;96168.72;5028575;28;103805;-59
2022/04/03 03:15:59;;;;;;;25.17;21.10;;;;;;;-0.24;100.00;96163.72;5029029;28;102006;-59
2022/04/03 03:18:25;;;;;;;27.20;22.27;;;;;;;-0.42;100.00;96158.94;5028813;28;105233;-59
2022/04/03 03:20:52;;;;;;;24.93;20.83;;;;;;;-0.38;100.00;96168.03;5028048;28;104267;-59
2022/04/03 03:23:19;;;;;;;26.50;20.90;;;;;;;-0.39;100.00;96166.38;5032378;28;101841;-59
2022/04/03 03:25:48;;;;;;;25.73;21.73;;;;;;;-0.40;100.00;96172.59;5028368;28;105438;-59
2022/04/03 03:28:15;;;;;;;25.57;20.80;;;;;;;-0.42;100.00;96170.16;5028853;28;102062;-59
2022/04/03 03:30:43;;;;;;;25.60;20.53;;;;;;;-0.42;100.00;96164.94;5028650;28;105614;-59
2022/04/03 03:33:10;;;;;;;26.13;21.73;;;;;;;-0.33;100.00;96170.06;5027811;28;105457;-59
2022/04/03 03:35:37;;;;;;;25.63;20.37;;;;;;;-0.34;100.00;96174.47;5028634;28;101901;-59
2022/04/03 03:38:04;;;;;;;25.30;20.17;;;;;;;-0.36;100.00;96173.84;5028540;28;105000;-59
2022/04/03 03:40:32;;;;;;;25.20;20.53;;;;;;;-0.31;100.00;96168.88;5028110;28;105332;-59
2022/04/03 03:43:01;;;;;;;24.20;19.83;;;;;;;-0.23;100.00;96181.78;5028604;28;102043;-59
2022/04/03 03:45:28;;;;;;;24.77;20.30;;;;;;;-0.17;100.00;96185.47;5031124;28;104968;-59
2022/04/03 03:47:57;;;;;;;24.87;20.47;;;;;;;-0.18;100.00;96184.66;5028086;28;101835;-59
2022/04/03 03:50:24;;;;;;;24.10;20.33;;;;;;;-0.26;100.00;96182.97;5028406;28;104897;-59
2022/04/03 03:52:52;;;;;;;24.97;20.63;;;;;;;-0.23;100.00;96187.00;5027690;28;103661;-59
2022/04/03 03:55:19;;;;;;;23.63;20.70;;;;;;;-0.36;100.00;96184.31;5028423;28;101895;-59
2022/04/03 03:57:46;;;;;;;22.93;18.80;;;;;;;-0.31;100.00;96189.78;5027854;27;105364;-59
2022/04/03 04:00:16;;;;;;;22.47;19.93;;;;;;;-0.27;100.00;96193.63;5027745;28;105320;-59
2022/04/03 04:02:43;;;;;;;23.07;20.10;;;;;;;-0.26;100.00;96197.84;5028190;28;101892;-59
2022/04/03 04:05:10;;;;;;;23.33;19.60;;;;;;;-0.31;100.00;96195.78;5028342;28;104801;-59
2022/04/03 04:07:43;;;;;;;23.90;20.03;;;;;;;-0.29;100.00;96200.84;5031041;28;105588;-59
2022/04/03 04:10:12;;;;;;;23.57;19.57;;;;;;;-0.19;100.00;96203.94;5027952;28;105397;-59
2022/04/03 04:12:39;;;;;;;23.07;19.60;;;;;;;-0.15;100.00;96202.56;5027616;28;105666;-59
2022/04/03 04:15:07;;;;;;;23.80;19.97;;;;;;;-0.21;100.00;96205.94;5029583;27;102004;-59
2022/04/03 04:17:38;;;;;;;22.87;19.10;;;;;;;-0.23;100.00;96210.53;5029003;28;103848;-59
2022/04/03 04:20:07;;;;;;;23.63;18.77;;;;;;;-0.19;100.00;96211.78;5027234;28;105841;-59
2022/04/03 04:22:34;;;;;;;22.33;19.00;;;;;;;-0.18;100.00;96208.16;5029079;28;101763;-59
2022/04/03 04:25:01;;;;;;;23.97;19.43;;;;;;;-0.15;100.00;96215.63;5029239;27;102877;-59
2022/04/03 04:27:28;;;;;;;23.47;19.27;;;;;;;-0.23;100.00;96214.97;5028541;28;104091;-59
2022/04/03 04:29:55;;;;;;;22.70;19.00;;;;;;;-0.28;100.00;96211.09;5031332;28;101853;-59
2022/04/03 04:32:24;;;;;;;23.60;18.97;;;;;;;-0.11;100.00;96216.84;5027049;28;105716;-59
2022/04/03 04:34:54;;;;;;;25.50;20.37;;;;;;;-0.17;100.00;96222.84;5028895;27;101860;-59
2022/04/03 04:37:21;;;;;;;22.47;19.60;;;;;;;-0.28;100.00;96220.72;5028888;28;102909;-59
2022/04/03 04:39:49;;;;;;;21.60;18.73;;;;;;;-0.34;100.00;96218.88;5028656;28;102873;-59
2022/04/03 04:42:16;;;;;;;22.67;19.30;;;;;;;-0.32;100.00;96224.72;5027807;28;101895;-59
2022/04/03 04:44:43;;;;;;;23.13;19.07;;;;;;;-0.26;100.00;96221.38;5027340;28;105322;-59
2022/04/03 04:47:10;;;;;;;22.53;18.90;;;;;;;-0.36;100.00;96223.47;5027218;28;105374;-59
2022/04/03 04:49:38;;;;;;;22.43;19.13;;;;;;;-0.39;100.00;96225.66;5027306;28;101905;-59
2022/04/03 04:52:07;;;;;;;21.03;17.83;;;;;;;-0.38;100.00;96230.72;5030161;28;105153;-59
2022/04/03 04:54:35;;;;;;;23.93;18.67;;;;;;;-0.38;100.00;96234.13;5028853;28;102024;-59
2022/04/03 04:57:02;;;;;;;22.73;19.07;;;;;;;-0.30;100.00;96230.56;5028897;28;102525;-59
2022/04/03 04:59:29;;;;;;;23.70;19.87;;;;;;;-0.25;100.00;96236.03;5026693;28;105799;-59
2022/04/03 05:01:59;;;;;;;22.73;19.77;;;;;;;-0.22;100.00;96239.09;5027541;28;101977;-59
2022/04/03 05:04:26;;;;;;;22.80;18.77;;;;;;;-0.22;100.00;96240.88;5027409;28;105246;-59
2022/04/03 05:06:54;;;;;;;23.73;19.47;;;;;;;-0.25;100.00;96246.50;5026856;28;105200;-59
2022/04/03 05:09:23;;;;;;;22.27;18.43;;;;;;;-0.27;100.00;96253.72;5030313;27;101846;-59
2022/04/03 05:11:50;;;;;;;21.83;18.50;;;;;;;-0.33;100.00;96248.44;5031036;28;105082;-59
2022/04/03 05:14:18;;;;;;;21.77;17.73;;;;;;;-0.32;100.00;96253.47;5033810;28;105375;-59
2022/04/03 05:16:45;;;;;;;21.03;17.90;;;;;;;-0.27;100.00;96254.50;5030844;28;105646;-59
2022/04/03 05:19:14;;;;;;;22.90;18.30;;;;;;;-0.27;100.00;96256.34;5030035;28;106598;-59
2022/04/03 05:21:42;;;;;;;20.00;17.90;;;;;;;-0.17;100.00;96255.00;5030606;28;101880;-59
2022/04/03 05:24:09;;;;;;;22.37;17.83;;;;;;;-0.06;100.00;96261.53;5030446;28;103692;-59
2022/04/03 05:26:38;;;;;;;20.57;18.20;;;;;;;-0.10;100.00;96261.09;5031448;28;103108;-59
2022/04/03 05:29:04;;;;;;;21.67;18.80;;;;;;;-0.10;100.00;96265.53;5030630;28;101929;-60
2022/04/03 05:31:33;;;;;;;22.43;18.67;;;;;;;-0.02;100.00;96265.38;5032117;28;102581;-59
2022/04/03 05:33:59;;;;;;;20.33;18.10;;;;;;;0.06;100.00;96267.88;5034835;28;102941;-59
2022/04/03 05:36:27;;;;;;;23.03;18.23;;;;;;;0.12;100.00;96273.16;5030225;28;105059;-59
2022/04/03 05:38:54;;;;;;;20.73;18.27;;;;;;;0.25;100.00;96278.50;5029939;28;104298;-60
2022/04/03 05:41:21;;;;;;;20.57;18.00;;;;;;;0.26;100.00;96279.28;5030430;28;101937;-60
2022/04/03 05:43:49;;;;;;;23.03;18.43;;;;;;;0.22;100.00;96276.25;5030267;28;105448;-60
2022/04/03 05:46:16;;;;;;;22.60;19.37;;;;;;;0.35;100.00;96279.00;5029822;28;105498;-60
2022/04/03 05:48:43;;;;;;;24.70;20.53;;;;;;;0.10;100.00;96277.78;5031153;28;102089;-61
2022/04/03 05:51:09;;;;;;;24.97;20.97;;;;;;;0.17;100.00;96272.59;5030401;28;103649;-61
2022/04/03 05:53:37;;;;;;;25.30;21.33;;;;;;;0.13;100.00;96287.03;5029748;28;107192;-61
2022/04/03 05:56:04;;;;;;;22.77;19.97;;;;;;;0.18;100.00;96282.84;5033395;28;102190;-61
2022/04/03 05:58:31;;;;;;;22.93;19.17;;;;;;;0.30;100.00;96283.16;5031020;28;103156;-61
2022/04/03 06:01:00;;;;;;;20.93;18.37;;;;;;;0.45;100.00;96296.97;5031601;28;101827;-61
2022/04/03 06:03:27;;;;;;;22.63;18.33;;;;;;;0.47;100.00;96294.94;5030025;28;104942;-61
2022/04/03 06:05:54;;;;;;;22.77;20.07;;;;;;;0.52;100.00;96289.97;5029373;28;105520;-61
2022/04/03 06:08:21;;;;;;;21.57;19.13;;;;;;;0.61;100.00;96288.81;5030033;28;101840;-61
2022/04/03 06:10:48;;;;;;;23.50;19.70;;;;;;;0.72;100.00;96291.69;5029776;28;105214;-61
2022/04/03 06:13:15;;;;;;;21.10;18.73;;;;;;;0.73;100.00;96298.53;5029460;28;105863;-61
2022/04/03 06:15:45;;;;;;;20.40;17.87;;;;;;;0.61;100.00;96297.47;5029843;28;101928;-61
2022/04/03 06:18:15;;;;;;;20.20;16.97;;;;;;;0.62;100.00;96303.53;5032512;28;105062;-61
2022/04/03 06:20:42;;;;;;;21.13;17.93;;;;;;;0.56;100.00;96304.28;5029456;27;101896;-61
2022/04/03 06:23:15;;;;;;;21.03;18.77;;;;;;;0.60;100.00;96308.16;5029597;28;106186;-60
2022/04/03 06:25:42;;;;;;;21.10;17.53;;;;;;;0.54;100.00;96312.31;5029228;28;105862;-60
2022/04/03 06:28:09;;;;;;;19.70;17.37;;;;;;;0.36;100.00;96324.25;5029789;28;101883;-60
2022/04/03 06:30:37;;;;;;;19.33;17.07;;;;;;;0.40;100.00;96325.50;5029379;28;103784;-60
2022/04/03 06:33:05;;;;;;;22.00;18.20;;;;;;;0.57;100.00;96321.59;5028924;28;105238;-60
2022/04/03 06:35:34;;;;;;;19.50;17.03;;;;;;;0.48;100.00;96317.50;5029498;28;101754;-60
2022/04/03 06:38:01;;;;;;;17.80;15.87;;;;;;;0.41;100.00;96322.69;5029600;28;105439;-60
2022/04/03 06:40:29;;;;;;;17.87;15.97;;;;;;;0.55;100.00;96323.59;5032165;28;105392;-61
2022/04/03 06:42:56;;;;;;;18.70;15.97;;;;;;;0.76;100.00;96329.59;5029365;28;104803;-61
2022/04/03 06:45:24;;;;;;;19.80;16.07;;;;;;;0.94;100.00;96329.88;5030227;28;102781;-61
2022/04/03 06:47:52;;;;;;;19.43;17.37;;;;;;;0.72;100.00;96335.41;5028949;28;102253;-61
2022/04/03 06:50:20;;;;;;;17.20;15.40;;;;;;;0.72;100.00;96330.16;5029172;28;106280;-61
2022/04/03 06:52:49;;;;;;;18.83;15.73;;;;;;;0.70;100.00;96332.97;5028785;28;106029;-61
2022/04/03 06:55:16;;;;;;;16.60;14.90;;;;;;;0.63;100.00;96337.34;5029272;28;101947;-61
2022/04/03 06:57:43;;;;;;;18.10;15.47;;;;;;;0.82;100.00;96341.91;5029343;28;105489;-61
2022/04/03 07:00:13;;;;;;;16.60;14.87;;;;;;;0.64;100.00;96332.91;5028781;28;105376;-61
2022/04/03 07:02:40;;;;;;;18.20;15.60;;;;;;;0.67;100.00;96335.94;5032210;28;101815;-61
2022/04/03 07:05:09;;;;;;;19.10;15.93;;;;;;;0.87;100.00;96338.69;5028424;28;105255;-61
2022/04/03 07:07:36;;;;;;;17.83;15.63;;;;;;;1.15;100.00;96342.13;5028917;28;101907;-61
2022/04/03 07:10:05;;;;;;;15.37;13.77;;;;;;;1.06;100.00;96344.09;5028892;28;105566;-61
2022/04/03 07:12:32;;;;;;;15.83;14.17;;;;;;;1.13;100.00;96338.84;5030053;28;102981;-61
2022/04/03 07:15:00;;;;;;;16.93;14.80;;;;;;;1.54;100.00;96347.53;5028733;28;101852;-61
2022/04/03 07:17:26;;;;;;;15.87;14.23;;;;;;;1.54;100.00;96345.72;5028680;28;105506;-61
2022/04/03 07:19:53;;;;;;;14.93;13.23;;;;;;;1.51;100.00;96359.22;5027817;28;105390;-61
2022/04/03 07:22:20;;;;;;;15.57;14.07;;;;;;;1.68;100.00;96355.25;5028815;28;101965;-61
2022/04/03 07:24:47;;;;;;;15.00;13.50;;;;;;;1.47;100.00;96357.97;5031068;28;104861;-61
2022/04/03 07:27:15;;;;;;;15.97;14.27;;;;;;;1.47;100.00;96360.59;5028688;28;101958;-61
2022/04/03 07:29:42;;;;;;;15.87;14.27;;;;;;;1.65;100.00;96360.88;5028586;28;104498;-61
2022/04/03 07:32:09;;;;;;;15.17;13.57;;;;;;;1.88;100.00;96365.81;5027381;27;105816;-61
2022/04/03 07:34:37;;;;;;;13.83;12.43;;;;;;;1.95;100.00;96361.38;5028171;28;101900;-61
2022/04/03 07:37:04;;;;;;;13.63;12.23;;;;;;;1.72;100.00;96371.38;5028684;28;103645;-61
2022/04/03 07:39:31;;;;;;;13.50;12.10;;;;;;;1.37;100.00;96368.00;5027391;28;105822;-61
2022/04/03 07:41:59;;;;;;;13.40;12.10;;;;;;;1.56;100.00;96380.41;5028547;28;101941;-61
2022/04/03 07:44:28;;;;;;;12.63;11.33;;;;;;;1.92;100.00;96374.91;5031368;28;105235;-61
2022/04/03 07:46:54;;;;;;;14.43;12.93;;;;;;;1.86;100.00;96373.06;5028193;28;101804;-61
2022/04/03 07:49:21;;;;;;;16.17;13.67;;;;;;;2.01;100.00;96371.06;5027631;28;104787;-61
2022/04/03 07:51:48;;;;;;;15.13;13.53;;;;;;;2.03;100.00;96379.56;5027873;28;105265;-61
2022/04/03 07:54:16;;;;;;;15.80;13.87;;;;;;;1.92;100.00;96378.31;5028280;28;101799;-61
2022/04/03 07:56:42;;;;;;;17.70;14.27;;;;;;;1.87;100.00;96385.16;5028245;28;105761;-61
2022/04/03 07:59:10;;;;;;;16.20;14.50;;;;;;;1.58;100.00;96390.69;5027438;28;105688;-61
2022/04/03 08:01:39;;;;;;;15.70;14.13;;;;;;;2.21;100.00;96383.25;5028240;28;101886;-61
2022/04/03 08:04:07;;;;;;;17.60;15.73;;;;;;;2.62;100.00;96383.91;5029731;27;102581;-61
2022/04/03 08:06:33;;;;;;;15.53;13.93;;;;;;;2.42;100.00;96387.53;5031033;28;105494;-61
2022/04/03 08:09:01;;;;;;;15.60;14.10;;;;;;;1.86;100.00;96388.81;5028013;28;105418;-61
2022/04/03 08:11:27;;;;;;;14.60;13.00;;;;;;;2.19;100.00;96389.69;5027381;28;105817;-61
2022/04/03 08:13:54;;;;;;;14.17;12.77;;;;;;;2.60;100.00;96388.56;5027710;28;101966;-61
2022/04/03 08:16:21;;;;;;;14.20;12.80;;;;;;;2.54;100.00;96389.34;5027984;28;102467;-61
2022/04/03 08:18:50;;;;;;;15.20;13.70;;;;;;;2.74;100.00;96394.63;5027153;28;106095;-61
2022/04/03 08:21:19;;;;;;;15.70;14.10;;;;;;;2.77;100.00;96392.41;5027606;28;101885;-61
2022/04/03 08:23:46;;;;;;;11.63;10.53;;;;;;;2.51;100.00;96395.00;5029597;27;102386;-61
2022/04/03 08:26:13;;;;;;;13.83;12.43;;;;;;;3.04;100.00;96396.63;5027295;28;105746;-61
2022/04/03 08:28:40;;;;;;;13.13;11.83;;;;;;;2.97;100.00;96400.28;5030987;28;102344;-61
2022/04/03 08:31:07;;;;;;;13.60;12.20;;;;;;;2.47;100.00;96395.59;5027107;28;105838;-61
2022/04/03 08:33:34;;;;;;;14.30;12.40;;;;;;;2.71;100.00;96401.09;5027811;28;101805;-61
2022/04/03 08:36:03;;;;;;;13.70;12.03;;;;;;;2.99;100.00;96399.06;5027738;28;104834;-61
2022/04/03 08:38:30;;;;;;;14.03;12.60;;;;;;;3.05;100.00;96403.50;5027127;28;104358;-61
2022/04/03 08:40:57;;;;;;;14.10;12.63;;;;;;;2.81;100.00;96406.75;5027734;28;102091;-61
2022/04/03 08:43:24;;;;;;;13.83;12.30;;;;;;;3.05;100.00;96407.94;5027993;27;105164;-61
2022/04/03 08:45:53;;;;;;;13.70;12.40;;;;;;;2.71;100.00;96406.34;5030389;28;104064;-61
2022/04/03 08:48:22;;;;;;;13.10;11.70;;;;;;;3.04;100.00;96401.06;5030954;28;102012;-61
2022/04/03 08:50:52;;;;;;;15.30;12.70;;;;;;;2.87;100.00;96405.13;5034286;28;105130;-61
2022/04/03 08:53:23;;;;;;;13.27;11.93;;;;;;;2.88;100.00;96402.28;5031183;28;101821;-61
2022/04/03 08:55:50;;;;;;;14.33;12.83;;;;;;;3.03;100.00;96413.41;5031185;28;104806;-61
2022/04/03 08:58:18;;;;;;;14.20;12.70;;;;;;;2.81;100.00;96411.19;5030141;28;105311;-61
2022/04/03 09:00:46;;;;;;;14.47;13.00;;;;;;;3.09;100.00;96409.97;5030569;28;101956;-61
2022/04/03 09:03:13;;;;;;;15.03;13.43;;;;;;;2.86;100.00;96414.00;5014039;28;105145;-61
2022/04/03 09:05:42;;;;;;;14.67;13.07;;;;;;;2.68;100.00;96416.44;5030547;28;105109;-61
2022/04/03 09:08:10;;;;;;;14.40;12.73;;;;;;;2.77;100.00;96413.41;5031044;28;102045;-61
2022/04/03 09:10:41;;;;;;;15.47;13.87;;;;;;;3.09;100.00;96409.16;5030759;28;105991;-61
2022/04/03 09:13:08;;;;;;;15.37;13.77;;;;;;;3.12;100.00;96416.63;5033501;28;105466;-61
2022/04/03 09:15:35;;;;;;;15.87;12.73;;;;;;;2.29;100.00;96421.63;5030573;28;103765;-61
2022/04/03 09:18:06;;;;;;;17.20;14.43;;;;;;;2.38;100.00;96423.03;5031667;28;103180;-61
2022/04/03 09:20:34;;;;;;;17.23;15.07;;;;;;;2.23;100.00;96422.38;5030827;28;101877;-61
2022/04/03 09:23:03;;;;;;;15.87;14.10;;;;;;;1.93;100.00;96429.78;5030959;28;104755;-61
2022/04/03 09:25:32;;;;;;;16.03;14.33;;;;;;;2.07;100.00;96438.50;5030069;28;105174;-61
2022/04/03 09:28:02;;;;;;;15.90;14.13;;;;;;;2.08;100.00;96435.66;5030605;28;101878;-62
2022/04/03 09:30:31;;;;;;;16.93;14.87;;;;;;;2.18;100.00;96428.22;5032351;28;102410;-61
2022/04/03 09:32:59;;;;;;;16.60;14.53;;;;;;;2.31;100.00;96430.09;5029738;28;104052;-61
2022/04/03 09:35:29;;;;;;;16.57;14.03;;;;;;;2.06;100.00;96442.94;5033826;28;102022;-61
2022/04/03 09:38:10;;;;;;;17.07;14.50;;;;;;;2.04;100.00;96438.88;5029687;28;103881;-61
2022/04/03 09:40:40;;;;;;;17.10;15.27;;;;;;;2.25;100.00;96436.91;5030242;28;101784;-61
2022/04/03 09:43:20;;;;;;;16.53;13.83;;;;;;;2.08;100.00;96434.88;5030482;28;104073;-61
2022/04/03 09:45:49;;;;;;;17.10;14.67;;;;;;;2.17;100.00;96438.91;5029737;28;104984;-61
2022/04/03 09:48:28;;;;;;;15.30;13.70;;;;;;;2.31;100.00;96435.34;5029916;28;101956;-61
2022/04/03 09:51:02;;;;;;;17.43;14.93;;;;;;;2.33;100.00;96436.75;5030178;28;104879;-61
2022/04/03 09:53:30;;;;;;;16.57;14.37;;;;;;;2.22;100.00;96439.94;5029592;28;104372;-61
2022/04/03 09:55:57;;;;;;;19.87;15.37;;;;;;;2.79;100.00;96439.47;5033230;27;101973;-61
2022/04/03 09:58:25;;;;;;;16.60;14.63;;;;;;;3.37;100.00;96433.38;5029590;28;104620;-61
2022/04/03 10:00:54;;;;;;;18.83;14.43;;;;;;;3.85;100.00;96432.88;5030106;28;101946;-61
2022/04/03 10:03:23;;;;;;;14.97;13.33;;;;;;;3.48;100.00;96435.38;5029980;28;105642;-61
2022/04/03 10:05:52;;;;;;;14.57;13.03;;;;;;;3.29;100.00;96437.00;5029502;28;103864;-61
2022/04/03 10:08:21;;;;;;;15.00;13.33;;;;;;;3.95;100.00;96422.72;5029846;28;101955;-61
2022/04/03 10:10:48;;;;;;;15.73;14.07;;;;;;;3.87;100.00;96430.03;5031509;28;102510;-61
2022/04/03 10:13:17;;;;;;;14.83;13.20;;;;;;;3.24;100.00;96436.84;5029424;28;105388;-61
2022/04/03 10:15:45;;;;;;;16.10;14.07;;;;;;;3.34;100.00;96431.16;5029623;28;101928;-61
2022/04/03 10:18:13;;;;;;;16.37;13.63;;;;;;;3.03;100.00;96438.84;5032636;28;103706;-61
2022/04/03 10:20:41;;;;;;;16.10;14.40;;;;;;;2.48;100.00;96441.84;5029764;28;101972;-61
2022/04/03 10:23:12;;;;;;;17.03;15.23;;;;;;;2.29;100.00;96447.84;5031328;28;102885;-61
2022/04/03 10:25:42;;;;;;;22.10;16.37;;;;;;;1.82;100.00;96450.47;5012784;28;105205;-61
2022/04/03 10:28:10;;;;;;;21.03;16.27;;;;;;;1.59;100.00;96453.38;5029526;28;101861;-61
2022/04/03 10:30:39;;;;;;;20.37;16.70;;;;;;;1.54;100.00;96447.91;5030580;27;102661;-61
2022/04/03 10:33:09;;;;;;;19.70;15.63;;;;;;;1.45;100.00;96445.63;5030611;28;102501;-61
2022/04/03 10:35:37;;;;;;;15.87;14.17;;;;;;;1.48;100.00;96447.88;5029339;28;101853;-61
2022/04/03 10:38:07;;;;;;;15.63;13.93;;;;;;;1.42;100.00;96446.84;5030664;28;104351;-61
2022/04/03 10:40:36;;;;;;;16.23;13.93;;;;;;;1.29;100.00;96451.19;5031980;28;105073;-61
2022/04/03 10:43:06;;;;;;;15.10;13.50;;;;;;;1.31;100.00;96451.81;5029379;28;105549;-61
2022/04/03 10:45:34;;;;;;;15.77;13.70;;;;;;;1.27;100.00;96446.13;5028855;28;104986;-61
2022/04/03 10:48:41;;;;;;;15.93;14.23;;;;;;;1.23;100.00;96444.91;5030636;27;101709;-61
2022/04/03 10:51:11;;;;;;;16.83;14.37;;;;;;;1.57;100.00;96449.34;5030887;27;102884;-61
2022/04/03 10:53:40;;;;;;;14.73;13.17;;;;;;;1.52;100.00;96449.91;5030047;27;102714;-61
2022/04/03 10:56:11;;;;;;;14.93;13.37;;;;;;;1.48;100.00;96448.69;5030434;28;101892;-61
2022/04/03 10:58:40;;;;;;;15.80;13.47;;;;;;;1.55;100.00;96451.34;5030729;28;102620;-62
2022/04/03 11:01:12;;;;;;;16.17;14.23;;;;;;;2.07;100.00;96446.38;5028619;28;105121;-62
2022/04/03 11:03:41;;;;;;;15.53;13.70;;;;;;;2.34;100.00;96445.41;5034200;27;102098;-62
2022/04/03 11:06:27;;;;;;;15.80;14.10;;;;;;;2.31;100.00;96445.84;5028710;27;103208;-62
2022/04/03 11:08:58;;;;;;;15.03;13.13;;;;;;;2.06;100.00;96452.59;5019386;28;101954;-62